Time;durP1;ratioP1;P1;durP2;ratioP2;P2;SDS_P1;SDS_P2;PMS_P1;PMS_P2;Temp;Humidity;BMP_temperature;BMP_pressure;BME280_temperature;BME280_humidity;BME280_pressure;Samples;Min_cycle;Max_cycle;Signal;HPM_P1;HPM_P2
2023/06/13 00:01:17;;;;;;;;;;;18.60;73.50;;;;;;5017304;28;80295;-49
2023/06/13 00:03:47;;;;;;;;;;;18.60;73.40;;;;;;5018729;28;81913;-52
2023/06/13 00:06:15;;;;;;;;;;;18.50;73.40;;;;;;5011773;28;82665;-48
2023/06/13 00:08:42;;;;;;;;;;;18.60;73.50;;;;;;5016257;28;80291;-50
2023/06/13 00:11:07;;;;;;;;;;;18.50;73.40;;;;;;5018058;28;80728;-52
2023/06/13 00:13:33;;;;;;;;;;;18.50;73.40;;;;;;5015910;28;81583;-52
2023/06/13 00:16:00;;;;;;;;;;;18.50;73.50;;;;;;5018509;28;81206;-48
2023/06/13 00:18:29;;;;;;;;;;;18.50;73.40;;;;;;5012706;28;82473;-53
2023/06/13 00:20:54;;;;;;;;;;;18.50;73.50;;;;;;5013060;28;80401;-48
2023/06/13 00:23:20;;;;;;;;;;;18.50;73.50;;;;;;5016109;28;80433;-51
2023/06/13 00:25:46;;;;;;;;;;;18.50;73.50;;;;;;5017751;28;81108;-50
2023/06/13 00:28:12;;;;;;;;;;;18.50;73.50;;;;;;5015966;28;80360;-51
2023/06/13 00:30:37;;;;;;;;;;;18.50;73.50;;;;;;5015631;28;80708;-48
2023/06/13 00:33:04;;;;;;;;;;;18.50;73.50;;;;;;5016887;28;81459;-49
2023/06/13 00:35:30;;;;;;;;;;;18.40;73.60;;;;;;5013227;28;80287;-53
2023/06/13 00:37:56;;;;;;;;;;;18.50;73.60;;;;;;5019725;28;80564;-50
2023/06/13 00:40:23;;;;;;;;;;;18.40;73.60;;;;;;5014174;28;80389;-51
2023/06/13 00:42:50;;;;;;;;;;;18.40;73.50;;;;;;5016980;28;80954;-50
2023/06/13 00:45:18;;;;;;;;;;;18.40;73.60;;;;;;5015854;28;82792;-49
2023/06/13 00:47:45;;;;;;;;;;;18.40;73.60;;;;;;5013537;28;81529;-53
2023/06/13 00:50:12;;;;;;;;;;;18.40;73.60;;;;;;5013875;28;82108;-51
2023/06/13 00:52:40;;;;;;;;;;;18.40;73.60;;;;;;5013347;28;82070;-51
2023/06/13 00:55:07;;;;;;;;;;;18.40;73.60;;;;;;5015328;28;83026;-50
2023/06/13 00:57:33;;;;;;;;;;;18.40;73.60;;;;;;5018018;28;83322;-51
2023/06/13 01:00:00;;;;;;;;;;;18.40;73.60;;;;;;5013180;28;82201;-51
2023/06/13 01:02:27;;;;;;;;;;;18.40;73.50;;;;;;5015682;28;82445;-53
2023/06/13 01:04:53;;;;;;;;;;;18.40;73.60;;;;;;5012536;28;84280;-51
2023/06/13 01:07:19;;;;;;;;;;;18.40;73.60;;;;;;5013236;28;81788;-52
2023/06/13 01:09:45;;;;;;;;;;;18.40;73.60;;;;;;5015387;28;82404;-48
2023/06/13 01:12:23;;;;;;;;;;;18.40;73.60;;;;;;5016176;28;82375;-50
2023/06/13 01:14:58;;;;;;;;;;;18.30;73.60;;;;;;5012148;28;82106;-51
2023/06/13 01:17:27;;;;;;;;;;;18.40;73.60;;;;;;5015559;28;82097;-50
2023/06/13 01:19:59;;;;;;;;;;;18.40;73.60;;;;;;5019904;28;85200;-53
2023/06/13 01:22:32;;;;;;;;;;;18.30;73.60;;;;;;5017002;28;82373;-50
2023/06/13 01:25:20;;;;;;;;;;;18.30;73.60;;;;;;5016880;28;84618;-48
2023/06/13 01:27:49;;;;;;;;;;;18.30;73.60;;;;;;5017823;28;81995;-52
2023/06/13 01:30:15;;;;;;;;;;;18.30;73.60;;;;;;5013442;28;83889;-53
2023/06/13 01:32:41;;;;;;;;;;;18.30;73.60;;;;;;5017444;28;82781;-50
2023/06/13 01:35:07;;;;;;;;;;;18.30;73.70;;;;;;5011858;28;82297;-50
2023/06/13 01:37:32;;;;;;;;;;;18.30;73.60;;;;;;5017407;28;82306;-49
2023/06/13 01:39:58;;;;;;;;;;;18.30;73.70;;;;;;5017198;28;83101;-53
2023/06/13 01:42:23;;;;;;;;;;;18.30;73.50;;;;;;5021226;28;82156;-49
2023/06/13 01:44:49;;;;;;;;;;;18.30;73.60;;;;;;5015842;28;84114;-50
2023/06/13 01:47:14;;;;;;;;;;;18.30;73.60;;;;;;5017944;28;82137;-50
2023/06/13 01:49:40;;;;;;;;;;;18.30;73.60;;;;;;5016283;28;83733;-49
2023/06/13 01:52:15;;;;;;;;;;;18.30;73.60;;;;;;5015399;28;85181;-51
2023/06/13 01:54:43;;;;;;;;;;;18.20;73.60;;;;;;5016701;28;82068;-52
2023/06/13 01:57:09;;;;;;;;;;;18.20;73.60;;;;;;5012829;28;82315;-51
2023/06/13 01:59:37;;;;;;;;;;;18.20;73.60;;;;;;5017349;28;82977;-49
2023/06/13 02:02:03;;;;;;;;;;;18.20;73.70;;;;;;5019357;28;81364;-50
2023/06/13 02:04:29;;;;;;;;;;;18.20;73.80;;;;;;5019494;28;82172;-48
2023/06/13 02:06:55;;;;;;;;;;;18.20;73.70;;;;;;5017242;28;82147;-49
2023/06/13 02:09:20;;;;;;;;;;;18.20;73.80;;;;;;5018254;28;82911;-53
2023/06/13 02:11:46;;;;;;;;;;;18.10;73.70;;;;;;5016307;28;82989;-48
2023/06/13 02:14:11;;;;;;;;;;;18.10;73.70;;;;;;5017475;28;82150;-53
2023/06/13 02:16:39;;;;;;;;;;;18.10;73.70;;;;;;5018760;28;82303;-49
2023/06/13 02:19:05;;;;;;;;;;;18.10;73.80;;;;;;5010926;28;84335;-52
2023/06/13 02:21:30;;;;;;;;;;;18.10;73.70;;;;;;5017027;28;82137;-52
2023/06/13 02:23:56;;;;;;;;;;;18.10;73.70;;;;;;5016194;28;82375;-53
2023/06/13 02:26:23;;;;;;;;;;;18.10;73.70;;;;;;5021332;28;82507;-48
2023/06/13 02:28:49;;;;;;;;;;;18.10;73.80;;;;;;5017376;28;82015;-51
2023/06/13 02:31:15;;;;;;;;;;;18.10;73.80;;;;;;5015286;28;83656;-52
2023/06/13 02:33:40;;;;;;;;;;;18.10;73.80;;;;;;5014012;28;83042;-50
2023/06/13 02:36:06;;;;;;;;;;;18.00;73.80;;;;;;5011800;28;83365;-49
2023/06/13 02:38:32;;;;;;;;;;;18.00;73.90;;;;;;5015683;28;83019;-51
2023/06/13 02:40:59;;;;;;;;;;;18.00;73.90;;;;;;5017727;28;82137;-49
2023/06/13 02:43:25;;;;;;;;;;;18.10;73.90;;;;;;5016852;28;83962;-52
2023/06/13 02:45:51;;;;;;;;;;;18.10;73.80;;;;;;5015446;28;82175;-50
2023/06/13 02:48:17;;;;;;;;;;;18.00;73.90;;;;;;5014725;28;82069;-52
2023/06/13 02:50:43;;;;;;;;;;;18.00;73.80;;;;;;5013303;28;82337;-52
2023/06/13 02:53:08;;;;;;;;;;;18.00;73.90;;;;;;5018253;28;82393;-51
2023/06/13 02:55:34;;;;;;;;;;;18.00;73.90;;;;;;5015339;28;83454;-52
2023/06/13 02:58:00;;;;;;;;;;;18.00;73.90;;;;;;5016279;28;83963;-53
2023/06/13 03:00:25;;;;;;;;;;;18.00;73.90;;;;;;5017683;28;82038;-50
2023/06/13 03:02:51;;;;;;;;;;;18.00;73.80;;;;;;5015050;28;84036;-50
2023/06/13 03:05:16;;;;;;;;;;;18.00;73.80;;;;;;5015824;28;84574;-48
2023/06/13 03:07:48;;;;;;;;;;;18.00;73.90;;;;;;5016411;28;81875;-48
2023/06/13 03:10:14;;;;;;;;;;;18.00;73.90;;;;;;5011996;28;83144;-51
2023/06/13 03:12:40;;;;;;;;;;;17.90;73.90;;;;;;5015968;28;82397;-50
2023/06/13 03:15:06;;;;;;;;;;;18.00;74.00;;;;;;5018184;28;82481;-49
2023/06/13 03:17:32;;;;;;;;;;;18.00;73.90;;;;;;5015256;28;83462;-50
2023/06/13 03:19:58;;;;;;;;;;;17.90;73.90;;;;;;5016531;28;82507;-50
2023/06/13 03:22:23;;;;;;;;;;;18.00;73.90;;;;;;5008650;28;82828;-49
2023/06/13 03:24:50;;;;;;;;;;;18.00;74.00;;;;;;5017049;28;82074;-50
2023/06/13 03:27:15;;;;;;;;;;;18.00;73.90;;;;;;5016378;28;82043;-51
2023/06/13 03:29:41;;;;;;;;;;;17.90;73.80;;;;;;5017487;28;82267;-49
2023/06/13 03:32:10;;;;;;;;;;;17.90;73.80;;;;;;5016870;28;82526;-50
2023/06/13 03:34:39;;;;;;;;;;;17.90;73.80;;;;;;5011642;28;82343;-50
2023/06/13 03:37:08;;;;;;;;;;;17.90;73.80;;;;;;5012712;28;82092;-55
2023/06/13 03:39:34;;;;;;;;;;;17.90;73.80;;;;;;5015612;28;81352;-51
2023/06/13 03:42:00;;;;;;;;;;;17.90;73.80;;;;;;5014344;28;82911;-54
2023/06/13 03:44:26;;;;;;;;;;;17.90;73.80;;;;;;5012164;28;82663;-51
2023/06/13 03:46:52;;;;;;;;;;;17.80;73.90;;;;;;5007011;28;83091;-48
2023/06/13 03:49:20;;;;;;;;;;;17.90;73.90;;;;;;5012709;28;83549;-49
2023/06/13 03:51:46;;;;;;;;;;;17.90;73.90;;;;;;5013736;28;83048;-50
2023/06/13 03:54:11;;;;;;;;;;;17.90;73.90;;;;;;5001087;28;82545;-49
2023/06/13 03:56:37;;;;;;;;;;;17.90;74.00;;;;;;5008727;28;82646;-49
2023/06/13 03:59:02;;;;;;;;;;;17.90;74.00;;;;;;5017070;28;82048;-50
2023/06/13 04:01:28;;;;;;;;;;;17.80;73.90;;;;;;5014928;28;84151;-50
2023/06/13 04:03:57;;;;;;;;;;;17.80;73.90;;;;;;5000795;28;82083;-51
2023/06/13 04:06:22;;;;;;;;;;;17.90;73.90;;;;;;5008652;28;82252;-50
2023/06/13 04:08:48;;;;;;;;;;;17.90;73.90;;;;;;5015235;28;83947;-51
2023/06/13 04:11:14;;;;;;;;;;;17.80;73.90;;;;;;5011893;28;83955;-51
2023/06/13 04:13:41;;;;;;;;;;;17.80;73.90;;;;;;5009655;28;82727;-49
2023/06/13 04:16:06;;;;;;;;;;;17.80;73.90;;;;;;5007568;28;84580;-50
2023/06/13 04:18:36;;;;;;;;;;;17.80;73.90;;;;;;5014156;28;81868;-49
2023/06/13 04:21:06;;;;;;;;;;;17.80;73.90;;;;;;5011590;28;83629;-48
2023/06/13 04:23:32;;;;;;;;;;;17.80;73.90;;;;;;5014628;28;82922;-50
2023/06/13 04:26:02;;;;;;;;;;;17.80;73.90;;;;;;5009716;28;83569;-50
2023/06/13 04:28:29;;;;;;;;;;;17.80;73.80;;;;;;5016572;28;82326;-53
2023/06/13 04:30:56;;;;;;;;;;;17.80;73.80;;;;;;5002821;28;84484;-51
2023/06/13 04:33:23;;;;;;;;;;;17.80;73.80;;;;;;5009186;28;83702;-49
2023/06/13 04:35:49;;;;;;;;;;;17.80;73.80;;;;;;5017437;28;84110;-52
2023/06/13 04:38:16;;;;;;;;;;;17.80;73.80;;;;;;5013864;28;82976;-50
2023/06/13 04:40:41;;;;;;;;;;;17.80;73.90;;;;;;5003469;28;84355;-50
2023/06/13 04:43:09;;;;;;;;;;;17.80;73.90;;;;;;5000952;28;82715;-50
2023/06/13 04:45:35;;;;;;;;;;;17.80;73.80;;;;;;5013351;28;82002;-49
2023/06/13 04:48:04;;;;;;;;;;;17.80;73.90;;;;;;5015195;28;84450;-51
2023/06/13 04:50:31;;;;;;;;;;;17.80;73.80;;;;;;5009129;28;83025;-51
2023/06/13 04:52:57;;;;;;;;;;;17.80;73.80;;;;;;5015295;28;82201;-48
2023/06/13 04:55:25;;;;;;;;;;;17.80;73.90;;;;;;5018076;28;82574;-52
2023/06/13 04:57:51;;;;;;;;;;;17.80;74.00;;;;;;5017806;28;84514;-53
2023/06/13 05:00:17;;;;;;;;;;;17.80;74.00;;;;;;5011527;28;82921;-52
2023/06/13 05:02:42;;;;;;;;;;;17.80;73.90;;;;;;5009379;28;84094;-49
2023/06/13 05:05:08;;;;;;;;;;;17.80;73.90;;;;;;5018449;28;82086;-52
2023/06/13 05:07:39;;;;;;;;;;;17.80;73.90;;;;;;5010025;28;82475;-52
2023/06/13 05:10:04;;;;;;;;;;;17.80;73.90;;;;;;5012563;28;82951;-52
2023/06/13 05:12:30;;;;;;;;;;;17.80;73.90;;;;;;5015309;28;82144;-49
2023/06/13 05:14:55;;;;;;;;;;;17.80;73.90;;;;;;5018482;28;82459;-49
2023/06/13 05:17:21;;;;;;;;;;;17.80;73.90;;;;;;5019303;28;82182;-56
2023/06/13 05:19:47;;;;;;;;;;;17.80;73.90;;;;;;5007458;28;82883;-51
2023/06/13 05:22:12;;;;;;;;;;;17.80;73.80;;;;;;5013302;28;83052;-49
2023/06/13 05:24:38;;;;;;;;;;;17.80;73.90;;;;;;5016893;28;83037;-49
2023/06/13 05:27:03;;;;;;;;;;;17.80;73.90;;;;;;5016730;28;82379;-50
2023/06/13 05:29:29;;;;;;;;;;;17.80;73.80;;;;;;5009263;28;84091;-49
2023/06/13 05:31:56;;;;;;;;;;;17.80;73.80;;;;;;5011841;28;82581;-48
2023/06/13 05:34:21;;;;;;;;;;;17.80;73.80;;;;;;5016615;28;82402;-52
2023/06/13 05:36:47;;;;;;;;;;;17.80;73.70;;;;;;5011822;28;82440;-53
2023/06/13 05:39:13;;;;;;;;;;;17.80;73.80;;;;;;5010647;28;82065;-49
2023/06/13 05:41:42;;;;;;;;;;;17.80;73.80;;;;;;5014262;28;83440;-50
2023/06/13 05:44:08;;;;;;;;;;;17.80;73.70;;;;;;5018260;28;82052;-50
2023/06/13 05:46:33;;;;;;;;;;;17.80;73.70;;;;;;5013719;28;84099;-51
2023/06/13 05:48:59;;;;;;;;;;;17.80;73.80;;;;;;5000837;28;84107;-49
2023/06/13 05:51:24;;;;;;;;;;;17.80;73.80;;;;;;5010818;28;82115;-51
2023/06/13 05:53:50;;;;;;;;;;;17.80;73.80;;;;;;5016606;28;82872;-55
2023/06/13 05:56:16;;;;;;;;;;;17.80;73.80;;;;;;5011956;28;83512;-52
2023/06/13 05:58:42;;;;;;;;;;;17.80;73.80;;;;;;5005628;28;82159;-52
2023/06/13 06:01:10;;;;;;;;;;;17.80;73.90;;;;;;5020171;28;83810;-51
2023/06/13 06:03:36;;;;;;;;;;;17.80;73.90;;;;;;5015891;28;84066;-50
2023/06/13 06:06:01;;;;;;;;;;;17.80;73.90;;;;;;5012961;28;82441;-53
2023/06/13 06:08:27;;;;;;;;;;;17.80;73.90;;;;;;5006518;28;83164;-51
2023/06/13 06:10:53;;;;;;;;;;;17.80;73.90;;;;;;5018620;28;82163;-50
2023/06/13 06:13:18;;;;;;;;;;;17.80;73.90;;;;;;5014235;28;82929;-52
2023/06/13 06:15:44;;;;;;;;;;;17.80;73.80;;;;;;5009281;28;83157;-52
2023/06/13 06:18:09;;;;;;;;;;;17.80;73.90;;;;;;5008381;28;82333;-49
2023/06/13 06:20:35;;;;;;;;;;;17.80;73.80;;;;;;5015436;28;82411;-50
2023/06/13 06:23:00;;;;;;;;;;;17.80;73.80;;;;;;5019427;28;83178;-47
2023/06/13 06:25:26;;;;;;;;;;;17.80;73.70;;;;;;5008191;28;82209;-52
2023/06/13 06:27:51;;;;;;;;;;;17.80;73.90;;;;;;5018502;28;82145;-50
2023/06/13 06:30:17;;;;;;;;;;;17.90;74.00;;;;;;5017142;28;81394;-51
2023/06/13 06:32:43;;;;;;;;;;;17.80;73.80;;;;;;5009564;28;82174;-49
2023/06/13 06:35:12;;;;;;;;;;;17.90;73.80;;;;;;5004241;28;82324;-49
2023/06/13 06:37:37;;;;;;;;;;;17.90;73.80;;;;;;5006384;28;84844;-51
2023/06/13 06:40:03;;;;;;;;;;;17.90;73.90;;;;;;5017564;28;83356;-49
2023/06/13 06:42:28;;;;;;;;;;;17.90;73.90;;;;;;5012710;28;83331;-53
2023/06/13 06:44:54;;;;;;;;;;;17.90;73.80;;;;;;5010053;28;82552;-52
2023/06/13 06:47:19;;;;;;;;;;;17.90;73.90;;;;;;5010534;28;83319;-49
2023/06/13 06:49:45;;;;;;;;;;;18.00;73.80;;;;;;5015536;28;82164;-48
2023/06/13 06:52:10;;;;;;;;;;;17.90;73.80;;;;;;5014696;28;82268;-48
2023/06/13 06:54:36;;;;;;;;;;;17.90;73.90;;;;;;5006336;28;82352;-49
2023/06/13 06:57:02;;;;;;;;;;;17.90;74.00;;;;;;5012096;28;81941;-48
2023/06/13 06:59:27;;;;;;;;;;;17.90;74.00;;;;;;5017125;28;82533;-48
2023/06/13 07:01:53;;;;;;;;;;;17.90;74.00;;;;;;5016561;28;82975;-48
2023/06/13 07:04:18;;;;;;;;;;;17.90;74.10;;;;;;5006913;28;83947;-48
2023/06/13 07:06:44;;;;;;;;;;;17.90;74.20;;;;;;5012207;28;82552;-51
2023/06/13 07:09:10;;;;;;;;;;;17.90;74.40;;;;;;5017195;28;82036;-49
2023/06/13 07:11:36;;;;;;;;;;;17.90;74.30;;;;;;5004083;28;82283;-51
2023/06/13 07:14:01;;;;;;;;;;;17.90;74.50;;;;;;5006834;28;83129;-49
2023/06/13 07:16:27;;;;;;;;;;;17.90;74.40;;;;;;5011724;28;81994;-49
2023/06/13 07:18:52;;;;;;;;;;;17.90;74.60;;;;;;5017760;28;81806;-50
2023/06/13 07:21:18;;;;;;;;;;;17.90;74.50;;;;;;5002720;28;84629;-51
2023/06/13 07:23:43;;;;;;;;;;;17.90;74.60;;;;;;5007558;28;81986;-50
2023/06/13 07:26:09;;;;;;;;;;;17.90;74.50;;;;;;5019315;28;82968;-49
2023/06/13 07:28:34;;;;;;;;;;;17.90;74.60;;;;;;5011865;28;82525;-50
2023/06/13 07:31:00;;;;;;;;;;;17.90;74.60;;;;;;5013365;28;84012;-54
2023/06/13 07:33:25;;;;;;;;;;;17.90;74.70;;;;;;5012581;28;83121;-48
2023/06/13 07:35:52;;;;;;;;;;;17.90;74.70;;;;;;5015721;28;81902;-49
2023/06/13 07:38:19;;;;;;;;;;;17.90;74.50;;;;;;5009755;28;84190;-51
2023/06/13 07:40:45;;;;;;;;;;;17.90;74.50;;;;;;5012521;28;83204;-52
2023/06/13 07:43:11;;;;;;;;;;;17.90;74.40;;;;;;5009641;28;81294;-50
2023/06/13 07:45:36;;;;;;;;;;;17.90;74.40;;;;;;5015954;28;83157;-50
2023/06/13 07:48:02;;;;;;;;;;;17.90;74.40;;;;;;5019294;28;82985;-49
2023/06/13 07:50:28;;;;;;;;;;;17.90;74.60;;;;;;5016659;28;82918;-50
2023/06/13 07:52:53;;;;;;;;;;;17.90;74.50;;;;;;5012778;28;82071;-50
2023/06/13 07:55:19;;;;;;;;;;;17.90;74.80;;;;;;5016848;28;82093;-51
2023/06/13 07:57:45;;;;;;;;;;;17.90;74.60;;;;;;5014044;28;82745;-51
2023/06/13 08:00:17;;;;;;;;;;;17.90;74.70;;;;;;5016006;28;82966;-50
2023/06/13 08:02:43;;;;;;;;;;;17.90;74.80;;;;;;5016995;28;82030;-49
2023/06/13 08:05:09;;;;;;;;;;;17.90;74.80;;;;;;5012872;28;82603;-51
2023/06/13 08:07:34;;;;;;;;;;;18.00;74.80;;;;;;5015844;28;82266;-48
2023/06/13 08:10:00;;;;;;;;;;;18.00;74.80;;;;;;5017045;28;82082;-48
2023/06/13 08:12:25;;;;;;;;;;;18.00;75.00;;;;;;5016609;28;82136;-51
2023/06/13 08:14:51;;;;;;;;;;;18.00;74.70;;;;;;5015095;28;82991;-51
2023/06/13 08:17:16;;;;;;;;;;;18.00;74.80;;;;;;5014303;28;83736;-50
2023/06/13 08:19:42;;;;;;;;;;;18.00;74.80;;;;;;5010147;28;83666;-49
2023/06/13 08:22:07;;;;;;;;;;;18.00;74.80;;;;;;5014915;28;82461;-51
2023/06/13 08:24:33;;;;;;;;;;;18.00;74.90;;;;;;5016460;28;82426;-52
2023/06/13 08:26:58;;;;;;;;;;;18.00;74.70;;;;;;5013737;28;83093;-50
2023/06/13 08:29:28;;;;;;;;;;;18.00;74.70;;;;;;5015758;28;82468;-49
2023/06/13 08:31:53;;;;;;;;;;;18.00;74.80;;;;;;5019264;28;84062;-53
2023/06/13 08:34:20;;;;;;;;;;;18.10;74.80;;;;;;5009649;28;82208;-50
2023/06/13 08:36:45;;;;;;;;;;;18.10;74.60;;;;;;5014438;28;82615;-51
2023/06/13 08:39:11;;;;;;;;;;;18.10;75.50;;;;;;5013355;28;83851;-53
2023/06/13 08:41:37;;;;;;;;;;;18.10;75.00;;;;;;5014667;28;82346;-52
2023/06/13 08:44:03;;;;;;;;;;;18.10;74.70;;;;;;5015001;28;82208;-52
2023/06/13 08:46:29;;;;;;;;;;;18.10;74.90;;;;;;5013912;28;82668;-54
2023/06/13 08:48:54;;;;;;;;;;;18.10;74.80;;;;;;5012966;28;82675;-54
2023/06/13 08:51:21;;;;;;;;;;;18.10;74.80;;;;;;5011630;28;82649;-51
2023/06/13 08:53:49;;;;;;;;;;;18.10;74.80;;;;;;5018138;28;82913;-50
2023/06/13 08:56:14;;;;;;;;;;;18.20;74.70;;;;;;5010673;28;84377;-54
2023/06/13 08:58:41;;;;;;;;;;;18.10;74.60;;;;;;5013282;28;84996;-50
2023/06/13 09:01:07;;;;;;;;;;;18.10;74.80;;;;;;5016251;28;82334;-54
2023/06/13 09:03:34;;;;;;;;;;;18.10;74.80;;;;;;5013243;28;83033;-54
2023/06/13 09:06:00;;;;;;;;;;;18.10;74.50;;;;;;5014860;28;82324;-54
2023/06/13 09:08:27;;;;;;;;;;;18.10;74.60;;;;;;5014026;28;82188;-52
2023/06/13 09:10:53;;;;;;;;;;;18.20;75.00;;;;;;5016021;28;82514;-50
2023/06/13 09:13:18;;;;;;;;;;;18.10;74.80;;;;;;5014964;28;81974;-52
2023/06/13 09:15:45;;;;;;;;;;;18.20;74.80;;;;;;5016039;28;82190;-53
2023/06/13 09:18:11;;;;;;;;;;;18.20;74.80;;;;;;5015376;28;84520;-48
2023/06/13 09:20:36;;;;;;;;;;;18.20;74.70;;;;;;5014925;28;81790;-50
2023/06/13 09:23:02;;;;;;;;;;;18.20;74.70;;;;;;5011768;28;82350;-50
2023/06/13 09:25:30;;;;;;;;;;;18.20;74.70;;;;;;5015762;28;81843;-49
2023/06/13 09:27:55;;;;;;;;;;;18.20;74.90;;;;;;5012981;28;83332;-49
2023/06/13 09:30:21;;;;;;;;;;;18.20;74.60;;;;;;5013316;28;83216;-51
2023/06/13 09:32:47;;;;;;;;;;;18.20;74.80;;;;;;5015132;28;84596;-52
2023/06/13 09:35:13;;;;;;;;;;;18.20;74.70;;;;;;5014804;28;81989;-50
2023/06/13 09:37:39;;;;;;;;;;;18.20;74.50;;;;;;5013534;28;83030;-49
2023/06/13 09:40:05;;;;;;;;;;;18.20;74.80;;;;;;5016577;28;82076;-52
2023/06/13 09:42:31;;;;;;;;;;;18.20;74.60;;;;;;5017625;28;81984;-49
2023/06/13 09:44:57;;;;;;;;;;;18.30;74.80;;;;;;5019698;28;82392;-51
2023/06/13 09:47:23;;;;;;;;;;;18.30;74.70;;;;;;5016833;28;82016;-48
2023/06/13 09:49:56;;;;;;;;;;;18.30;74.70;;;;;;5016292;28;83969;-49
2023/06/13 09:52:30;;;;;;;;;;;18.30;74.70;;;;;;5012168;28;85469;-50
2023/06/13 09:54:56;;;;;;;;;;;18.30;74.70;;;;;;5016834;28;82081;-53
2023/06/13 09:57:22;;;;;;;;;;;18.30;74.90;;;;;;5021680;28;82259;-48
2023/06/13 09:59:48;;;;;;;;;;;18.30;74.90;;;;;;5017412;28;82098;-51
2023/06/13 10:02:17;;;;;;;;;;;18.30;74.70;;;;;;5016724;28;83093;-51
2023/06/13 10:04:43;;;;;;;;;;;18.30;74.70;;;;;;5015181;28;83086;-49
2023/06/13 10:07:10;;;;;;;;;;;18.40;74.80;;;;;;5014262;28;82045;-48
2023/06/13 10:09:35;;;;;;;;;;;18.40;74.50;;;;;;5019171;28;82294;-49
2023/06/13 10:12:02;;;;;;;;;;;18.40;74.40;;;;;;5015889;28;83044;-50
2023/06/13 10:14:30;;;;;;;;;;;18.40;74.70;;;;;;5017500;28;81980;-49
2023/06/13 10:17:06;;;;;;;;;;;18.50;74.60;;;;;;5018173;28;83204;-51
2023/06/13 10:19:33;;;;;;;;;;;18.50;74.40;;;;;;5020141;28;83419;-51
2023/06/13 10:21:59;;;;;;;;;;;18.50;74.50;;;;;;5011709;28;82345;-50
2023/06/13 10:24:25;;;;;;;;;;;18.50;74.50;;;;;;5015627;28;84622;-49
2023/06/13 10:26:53;;;;;;;;;;;18.50;74.60;;;;;;5016849;28;82069;-49
2023/06/13 10:29:34;;;;;;;;;;;18.50;74.50;;;;;;5018503;28;82565;-54
2023/06/13 10:32:12;;;;;;;;;;;18.50;74.40;;;;;;5018684;28;82942;-48
2023/06/13 10:34:50;;;;;;;;;;;18.50;74.40;;;;;;5016648;28;81401;-52
2023/06/13 10:37:18;;;;;;;;;;;18.60;74.60;;;;;;5011608;28;83143;-51
2023/06/13 10:40:12;;;;;;;;;;;18.60;74.50;;;;;;5017719;28;83499;-52
2023/06/13 10:42:40;;;;;;;;;;;18.50;74.60;;;;;;5014819;28;83334;-49
2023/06/13 10:45:15;;;;;;;;;;;18.60;74.70;;;;;;5016036;28;84111;-50
2023/06/13 10:47:40;;;;;;;;;;;18.60;74.60;;;;;;5012656;28;82087;-48
2023/06/13 10:50:08;;;;;;;;;;;18.60;74.50;;;;;;5016576;28;82566;-49
2023/06/13 10:52:33;;;;;;;;;;;18.60;74.40;;;;;;5014026;28;82973;-49
2023/06/13 10:55:01;;;;;;;;;;;18.60;74.90;;;;;;5017548;28;82065;-49
2023/06/13 10:58:05;;;;;;;;;;;18.60;74.60;;;;;;5016991;28;82428;-49
2023/06/13 11:00:33;;;;;;;;;;;18.60;74.80;;;;;;4993544;28;82258;-51
2023/06/13 11:03:08;;;;;;;;;;;18.60;75.00;;;;;;4993343;28;82268;-48
2023/06/13 11:05:35;;;;;;;;;;;18.60;74.80;;;;;;5004452;28;82394;-52
2023/06/13 11:08:03;;;;;;;;;;;18.60;75.10;;;;;;5010936;28;82998;-48
2023/06/13 11:10:29;;;;;;;;;;;18.60;75.00;;;;;;5009602;28;83461;-51
2023/06/13 11:12:56;;;;;;;;;;;18.50;75.00;;;;;;5015846;28;84041;-49
2023/06/13 11:15:26;;;;;;;;;;;18.60;75.30;;;;;;5017561;28;82097;-50
2023/06/13 11:18:03;;;;;;;;;;;18.60;74.90;;;;;;5015887;28;82398;-51
2023/06/13 11:20:30;;;;;;;;;;;18.60;75.10;;;;;;5015119;28;83010;-51
2023/06/13 11:22:56;;;;;;;;;;;18.70;75.20;;;;;;5014442;28;82153;-50
2023/06/13 11:25:22;;;;;;;;;;;18.60;75.20;;;;;;5020655;28;83005;-52
2023/06/13 11:27:48;;;;;;;;;;;18.70;75.10;;;;;;5011522;28;82097;-50
2023/06/13 11:30:14;;;;;;;;;;;18.70;75.10;;;;;;5016450;28;82373;-51
2023/06/13 11:32:40;;;;;;;;;;;18.70;75.10;;;;;;5016625;28;83948;-50
2023/06/13 11:35:08;;;;;;;;;;;18.70;74.90;;;;;;5014745;28;82100;-49
2023/06/13 11:37:43;;;;;;;;;;;18.70;74.90;;;;;;5013514;28;83953;-53
2023/06/13 11:40:11;;;;;;;;;;;18.70;74.90;;;;;;5014089;28;83729;-51
2023/06/13 11:42:37;;;;;;;;;;;18.70;74.90;;;;;;5015473;28;82096;-51
2023/06/13 11:45:03;;;;;;;;;;;18.70;75.00;;;;;;5017455;28;82279;-49
2023/06/13 11:47:28;;;;;;;;;;;18.70;74.80;;;;;;5017786;28;83088;-53
2023/06/13 11:49:57;;;;;;;;;;;18.80;74.80;;;;;;5015802;28;82614;-52
2023/06/13 11:52:23;;;;;;;;;;;18.70;74.90;;;;;;5014181;28;84201;-48
2023/06/13 11:54:48;;;;;;;;;;;18.80;74.90;;;;;;5012730;28;82143;-52
2023/06/13 11:57:17;;;;;;;;;;;18.70;74.90;;;;;;5015550;28;83018;-52
2023/06/13 11:59:43;;;;;;;;;;;18.70;75.00;;;;;;5013607;28;82947;-50
2023/06/13 12:02:09;;;;;;;;;;;18.80;75.30;;;;;;5015671;28;82161;-50
2023/06/13 12:04:35;;;;;;;;;;;18.70;75.20;;;;;;5016410;28;82620;-50
2023/06/13 12:07:06;;;;;;;;;;;18.80;75.20;;;;;;5014048;28;82933;-51
2023/06/13 12:09:32;;;;;;;;;;;18.80;75.20;;;;;;5015782;28;82051;-49
2023/06/13 12:11:58;;;;;;;;;;;18.80;75.10;;;;;;5016696;28;82491;-55
2023/06/13 12:14:23;;;;;;;;;;;18.80;75.10;;;;;;5014772;28;81135;-51
2023/06/13 12:16:51;;;;;;;;;;;18.80;75.10;;;;;;5015503;28;82053;-51
2023/06/13 12:19:21;;;;;;;;;;;18.80;75.20;;;;;;5016317;28;83469;-49
2023/06/13 12:21:48;;;;;;;;;;;18.80;75.30;;;;;;5012895;28;83050;-51
2023/06/13 12:24:14;;;;;;;;;;;18.80;75.10;;;;;;5011517;28;85430;-49
2023/06/13 12:26:43;;;;;;;;;;;18.80;75.40;;;;;;5016163;28;83065;-49
2023/06/13 12:29:11;;;;;;;;;;;18.80;75.50;;;;;;5015086;28;82072;-51
2023/06/13 12:31:41;;;;;;;;;;;18.80;75.30;;;;;;5016302;28;82352;-50
2023/06/13 12:34:34;;;;;;;;;;;18.80;75.40;;;;;;5015298;28;82001;-53
2023/06/13 12:37:04;;;;;;;;;;;18.80;75.60;;;;;;5012465;28;83891;-53
2023/06/13 12:39:33;;;;;;;;;;;18.80;75.70;;;;;;5009581;28;82932;-53
2023/06/13 12:42:03;;;;;;;;;;;18.80;75.60;;;;;;5013829;28;82324;-54
2023/06/13 12:44:30;;;;;;;;;;;18.80;75.70;;;;;;5015447;28;82065;-50
2023/06/13 12:46:59;;;;;;;;;;;18.80;75.70;;;;;;5013982;28;85759;-50
2023/06/13 12:49:24;;;;;;;;;;;18.80;75.80;;;;;;5013659;28;82618;-48
2023/06/13 12:51:54;;;;;;;;;;;18.80;75.90;;;;;;5015383;28;82127;-48
2023/06/13 12:54:20;;;;;;;;;;;18.70;75.80;;;;;;5013465;28;82991;-47
2023/06/13 12:56:51;;;;;;;;;;;18.70;75.90;;;;;;5015373;28;82532;-51
2023/06/13 12:59:17;;;;;;;;;;;18.80;76.00;;;;;;5014799;28;83205;-53
2023/06/13 13:01:42;;;;;;;;;;;18.70;75.90;;;;;;5013277;28;82830;-50
2023/06/13 13:04:09;;;;;;;;;;;18.80;75.90;;;;;;5014755;28;82371;-51
2023/06/13 13:06:35;;;;;;;;;;;18.70;75.80;;;;;;5012269;28;84321;-50
2023/06/13 13:09:00;;;;;;;;;;;18.80;75.80;;;;;;5005481;28;82111;-54
2023/06/13 13:11:26;;;;;;;;;;;18.80;75.80;;;;;;5014716;28;83172;-54
2023/06/13 13:13:51;;;;;;;;;;;18.80;75.70;;;;;;5013185;28;83257;-51
2023/06/13 13:16:17;;;;;;;;;;;18.80;75.80;;;;;;5020464;28;82110;-52
2023/06/13 13:18:43;;;;;;;;;;;18.80;75.70;;;;;;5011297;28;83137;-51
2023/06/13 13:21:08;;;;;;;;;;;18.80;75.70;;;;;;5011401;28;82529;-49
2023/06/13 13:23:34;;;;;;;;;;;18.80;75.80;;;;;;5013798;28;82332;-50
2023/06/13 13:26:00;;;;;;;;;;;18.80;75.70;;;;;;5014339;28;82156;-51
2023/06/13 13:28:26;;;;;;;;;;;18.80;75.80;;;;;;5016409;28;81849;-49
2023/06/13 13:30:51;;;;;;;;;;;18.80;75.70;;;;;;5015908;28;82858;-49
2023/06/13 13:33:22;;;;;;;;;;;18.80;75.80;;;;;;5013307;28;83430;-48
2023/06/13 13:35:47;;;;;;;;;;;18.80;75.70;;;;;;5015569;28;82995;-50
2023/06/13 13:38:13;;;;;;;;;;;18.80;75.80;;;;;;5017098;28;83260;-50
2023/06/13 13:40:38;;;;;;;;;;;18.80;75.90;;;;;;5007793;28;83076;-48
2023/06/13 13:43:04;;;;;;;;;;;18.80;75.70;;;;;;5014882;28;82444;-48
2023/06/13 13:45:30;;;;;;;;;;;18.80;75.70;;;;;;5011544;28;82934;-50
2023/06/13 13:47:55;;;;;;;;;;;18.80;75.70;;;;;;5016760;28;82170;-46
2023/06/13 13:50:21;;;;;;;;;;;18.80;75.60;;;;;;5013430;28;82751;-50
2023/06/13 13:52:46;;;;;;;;;;;18.80;75.50;;;;;;5018999;28;82398;-45
2023/06/13 13:55:14;;;;;;;;;;;18.80;75.60;;;;;;5011745;28;83935;-47
2023/06/13 13:57:40;;;;;;;;;;;18.80;75.50;;;;;;5016175;28;82100;-47
2023/06/13 14:00:06;;;;;;;;;;;18.80;75.50;;;;;;5014555;28;82915;-49
2023/06/13 14:02:32;;;;;;;;;;;18.80;75.40;;;;;;5019799;28;83234;-51
2023/06/13 14:04:57;;;;;;;;;;;18.80;76.00;;;;;;5011400;28;82026;-48
2023/06/13 14:07:23;;;;;;;;;;;18.80;75.30;;;;;;5007173;28;82175;-46
2023/06/13 14:09:49;;;;;;;;;;;18.80;75.30;;;;;;5018333;28;82511;-48
2023/06/13 14:12:15;;;;;;;;;;;18.80;75.30;;;;;;5015507;28;84654;-46
2023/06/13 14:14:40;;;;;;;;;;;18.80;75.30;;;;;;5006131;28;82512;-50